sensor_id;sensor_type;location;lat;lon;timestamp;P1;durP1;ratioP1;P2;durP2;ratioP2
59105;SDS011;44891;50.204;8.132;2022-07-25T00:01:06;11.20;;;9.32;;
59105;SDS011;44891;50.204;8.132;2022-07-25T00:05:09;10.40;;;8.98;;
59105;SDS011;44891;50.204;8.132;2022-07-25T00:09:11;10.23;;;9.13;;
59105;SDS011;44891;50.204;8.132;2022-07-25T00:13:13;11.55;;;9.75;;
59105;SDS011;44891;50.204;8.132;2022-07-25T00:17:16;12.75;;;9.48;;
59105;SDS011;44891;50.204;8.132;2022-07-25T00:21:19;12.52;;;9.90;;
59105;SDS011;44891;50.204;8.132;2022-07-25T00:25:21;11.82;;;9.77;;
59105;SDS011;44891;50.204;8.132;2022-07-25T00:29:23;10.95;;;9.80;;
59105;SDS011;44891;50.204;8.132;2022-07-25T00:33:26;11.68;;;9.70;;
59105;SDS011;44891;50.204;8.132;2022-07-25T00:37:29;10.45;;;9.25;;
59105;SDS011;44891;50.204;8.132;2022-07-25T00:41:32;11.48;;;9.48;;
59105;SDS011;44891;50.204;8.132;2022-07-25T00:45:34;12.82;;;9.82;;
59105;SDS011;44891;50.204;8.132;2022-07-25T00:49:36;10.85;;;9.10;;
59105;SDS011;44891;50.204;8.132;2022-07-25T00:53:40;11.25;;;9.20;;
59105;SDS011;44891;50.204;8.132;2022-07-25T00:57:42;10.55;;;8.95;;
59105;SDS011;44891;50.204;8.132;2022-07-25T01:01:44;10.45;;;8.95;;
59105;SDS011;44891;50.204;8.132;2022-07-25T01:05:47;10.85;;;9.18;;
59105;SDS011;44891;50.204;8.132;2022-07-25T01:09:51;12.50;;;9.45;;
59105;SDS011;44891;50.204;8.132;2022-07-25T01:13:54;10.43;;;9.25;;
59105;SDS011;44891;50.204;8.132;2022-07-25T01:17:57;10.38;;;9.05;;
59105;SDS011;44891;50.204;8.132;2022-07-25T01:22:00;11.20;;;9.63;;
59105;SDS011;44891;50.204;8.132;2022-07-25T01:26:03;10.45;;;8.88;;
59105;SDS011;44891;50.204;8.132;2022-07-25T01:30:06;9.88;;;8.75;;
59105;SDS011;44891;50.204;8.132;2022-07-25T01:34:09;9.95;;;8.93;;
59105;SDS011;44891;50.204;8.132;2022-07-25T01:38:13;10.40;;;9.25;;
59105;SDS011;44891;50.204;8.132;2022-07-25T01:42:16;9.93;;;8.88;;
59105;SDS011;44891;50.204;8.132;2022-07-25T01:46:18;10.57;;;8.77;;
59105;SDS011;44891;50.204;8.132;2022-07-25T01:50:20;9.77;;;8.70;;
59105;SDS011;44891;50.204;8.132;2022-07-25T01:54:24;11.38;;;9.00;;
59105;SDS011;44891;50.204;8.132;2022-07-25T01:58:26;10.13;;;9.02;;
59105;SDS011;44891;50.204;8.132;2022-07-25T02:02:28;9.85;;;8.57;;
59105;SDS011;44891;50.204;8.132;2022-07-25T02:06:30;10.98;;;8.68;;
59105;SDS011;44891;50.204;8.132;2022-07-25T02:10:35;11.02;;;8.55;;
59105;SDS011;44891;50.204;8.132;2022-07-25T02:14:37;12.40;;;8.60;;
59105;SDS011;44891;50.204;8.132;2022-07-25T02:18:39;11.60;;;8.57;;
59105;SDS011;44891;50.204;8.132;2022-07-25T02:22:41;9.93;;;8.40;;
59105;SDS011;44891;50.204;8.132;2022-07-25T02:26:44;9.90;;;8.25;;
59105;SDS011;44891;50.204;8.132;2022-07-25T02:30:46;9.38;;;8.38;;
59105;SDS011;44891;50.204;8.132;2022-07-25T02:34:48;10.73;;;8.35;;
59105;SDS011;44891;50.204;8.132;2022-07-25T02:38:50;10.07;;;8.63;;
59105;SDS011;44891;50.204;8.132;2022-07-25T02:42:54;10.30;;;8.80;;
59105;SDS011;44891;50.204;8.132;2022-07-25T02:46:56;10.18;;;9.07;;
59105;SDS011;44891;50.204;8.132;2022-07-25T02:50:58;9.73;;;8.65;;
59105;SDS011;44891;50.204;8.132;2022-07-25T02:55:00;12.20;;;8.82;;
59105;SDS011;44891;50.204;8.132;2022-07-25T02:59:03;10.10;;;8.40;;
59105;SDS011;44891;50.204;8.132;2022-07-25T03:03:06;10.52;;;8.50;;
59105;SDS011;44891;50.204;8.132;2022-07-25T03:07:08;12.10;;;9.38;;
59105;SDS011;44891;50.204;8.132;2022-07-25T03:11:10;11.20;;;8.98;;
59105;SDS011;44891;50.204;8.132;2022-07-25T03:15:14;9.40;;;8.40;;
59105;SDS011;44891;50.204;8.132;2022-07-25T03:19:16;10.55;;;8.77;;
59105;SDS011;44891;50.204;8.132;2022-07-25T03:23:18;10.55;;;8.57;;
59105;SDS011;44891;50.204;8.132;2022-07-25T03:27:20;10.55;;;8.85;;
59105;SDS011;44891;50.204;8.132;2022-07-25T03:31:23;10.20;;;8.70;;
59105;SDS011;44891;50.204;8.132;2022-07-25T03:35:25;11.20;;;9.43;;
59105;SDS011;44891;50.204;8.132;2022-07-25T03:39:28;9.85;;;8.63;;
59105;SDS011;44891;50.204;8.132;2022-07-25T03:43:30;10.00;;;8.30;;
59105;SDS011;44891;50.204;8.132;2022-07-25T03:47:33;10.50;;;9.00;;
59105;SDS011;44891;50.204;8.132;2022-07-25T03:51:36;12.38;;;9.10;;
59105;SDS011;44891;50.204;8.132;2022-07-25T03:55:38;11.00;;;9.23;;
59105;SDS011;44891;50.204;8.132;2022-07-25T03:59:40;10.40;;;9.30;;
59105;SDS011;44891;50.204;8.132;2022-07-25T04:03:43;10.68;;;9.57;;
59105;SDS011;44891;50.204;8.132;2022-07-25T04:07:45;10.45;;;9.27;;
59105;SDS011;44891;50.204;8.132;2022-07-25T04:11:47;10.48;;;9.20;;
59105;SDS011;44891;50.204;8.132;2022-07-25T04:15:49;13.20;;;9.73;;
59105;SDS011;44891;50.204;8.132;2022-07-25T04:19:53;11.45;;;9.45;;
59105;SDS011;44891;50.204;8.132;2022-07-25T04:23:55;11.60;;;9.52;;
59105;SDS011;44891;50.204;8.132;2022-07-25T04:27:57;11.35;;;9.48;;
59105;SDS011;44891;50.204;8.132;2022-07-25T04:31:59;11.13;;;9.50;;
59105;SDS011;44891;50.204;8.132;2022-07-25T04:36:03;11.48;;;9.05;;
59105;SDS011;44891;50.204;8.132;2022-07-25T04:40:06;10.40;;;9.10;;
59105;SDS011;44891;50.204;8.132;2022-07-25T04:44:10;11.32;;;9.27;;
59105;SDS011;44891;50.204;8.132;2022-07-25T04:48:12;10.32;;;9.05;;
59105;SDS011;44891;50.204;8.132;2022-07-25T04:52:16;10.40;;;9.30;;
59105;SDS011;44891;50.204;8.132;2022-07-25T04:56:18;10.40;;;9.25;;
59105;SDS011;44891;50.204;8.132;2022-07-25T05:00:20;11.25;;;9.35;;
59105;SDS011;44891;50.204;8.132;2022-07-25T05:04:23;11.20;;;8.95;;
59105;SDS011;44891;50.204;8.132;2022-07-25T05:08:26;10.48;;;9.13;;
59105;SDS011;44891;50.204;8.132;2022-07-25T05:12:29;10.63;;;9.05;;
59105;SDS011;44891;50.204;8.132;2022-07-25T05:16:31;11.20;;;9.40;;
59105;SDS011;44891;50.204;8.132;2022-07-25T05:20:33;10.43;;;8.98;;
59105;SDS011;44891;50.204;8.132;2022-07-25T05:24:37;10.45;;;9.27;;
59105;SDS011;44891;50.204;8.132;2022-07-25T05:28:39;9.80;;;8.80;;
59105;SDS011;44891;50.204;8.132;2022-07-25T05:32:41;11.05;;;9.30;;
59105;SDS011;44891;50.204;8.132;2022-07-25T05:36:43;14.13;;;9.57;;
59105;SDS011;44891;50.204;8.132;2022-07-25T05:40:47;14.43;;;9.77;;
59105;SDS011;44891;50.204;8.132;2022-07-25T05:44:51;11.18;;;9.25;;
59105;SDS011;44891;50.204;8.132;2022-07-25T05:48:53;11.32;;;9.27;;
59105;SDS011;44891;50.204;8.132;2022-07-25T05:52:55;9.73;;;8.60;;
59105;SDS011;44891;50.204;8.132;2022-07-25T05:56:59;11.88;;;9.25;;
59105;SDS011;44891;50.204;8.132;2022-07-25T06:01:01;11.85;;;9.77;;
59105;SDS011;44891;50.204;8.132;2022-07-25T06:05:04;10.50;;;9.07;;
59105;SDS011;44891;50.204;8.132;2022-07-25T06:09:06;9.88;;;8.65;;
59105;SDS011;44891;50.204;8.132;2022-07-25T06:13:10;10.45;;;9.13;;
59105;SDS011;44891;50.204;8.132;2022-07-25T06:17:12;12.10;;;8.95;;
59105;SDS011;44891;50.204;8.132;2022-07-25T06:21:14;11.10;;;9.15;;
59105;SDS011;44891;50.204;8.132;2022-07-25T06:25:17;11.38;;;9.07;;
59105;SDS011;44891;50.204;8.132;2022-07-25T06:29:20;10.30;;;9.20;;
59105;SDS011;44891;50.204;8.132;2022-07-25T06:33:22;11.23;;;9.80;;
59105;SDS011;44891;50.204;8.132;2022-07-25T06:37:24;13.40;;;9.68;;
59105;SDS011;44891;50.204;8.132;2022-07-25T06:41:26;10.75;;;9.40;;
59105;SDS011;44891;50.204;8.132;2022-07-25T06:45:30;10.93;;;9.32;;
59105;SDS011;44891;50.204;8.132;2022-07-25T06:49:32;9.52;;;8.55;;
59105;SDS011;44891;50.204;8.132;2022-07-25T06:53:34;13.18;;;9.85;;
59105;SDS011;44891;50.204;8.132;2022-07-25T06:57:36;10.57;;;9.48;;
59105;SDS011;44891;50.204;8.132;2022-07-25T07:01:40;11.15;;;9.60;;
59105;SDS011;44891;50.204;8.132;2022-07-25T07:05:42;11.60;;;9.40;;
59105;SDS011;44891;50.204;8.132;2022-07-25T07:09:44;11.40;;;9.23;;
59105;SDS011;44891;50.204;8.132;2022-07-25T07:13:46;10.93;;;9.23;;
59105;SDS011;44891;50.204;8.132;2022-07-25T07:17:50;12.70;;;9.70;;
59105;SDS011;44891;50.204;8.132;2022-07-25T07:21:52;10.45;;;9.35;;
59105;SDS011;44891;50.204;8.132;2022-07-25T07:25:54;10.52;;;9.43;;
59105;SDS011;44891;50.204;8.132;2022-07-25T07:29:56;10.20;;;9.20;;
59105;SDS011;44891;50.204;8.132;2022-07-25T07:34:00;10.93;;;9.77;;
59105;SDS011;44891;50.204;8.132;2022-07-25T07:38:02;9.70;;;8.75;;
59105;SDS011;44891;50.204;8.132;2022-07-25T07:42:04;10.32;;;9.20;;
59105;SDS011;44891;50.204;8.132;2022-07-25T07:46:06;10.75;;;9.65;;
59105;SDS011;44891;50.204;8.132;2022-07-25T07:50:10;10.40;;;9.30;;
59105;SDS011;44891;50.204;8.132;2022-07-25T07:54:12;10.35;;;9.18;;
59105;SDS011;44891;50.204;8.132;2022-07-25T07:58:32;9.75;;;8.80;;
59105;SDS011;44891;50.204;8.132;2022-07-25T08:02:40;10.05;;;9.02;;
59105;SDS011;44891;50.204;8.132;2022-07-25T08:06:44;10.23;;;8.55;;
59105;SDS011;44891;50.204;8.132;2022-07-25T08:10:46;9.52;;;8.52;;
59105;SDS011;44891;50.204;8.132;2022-07-25T08:14:49;9.50;;;8.63;;
59105;SDS011;44891;50.204;8.132;2022-07-25T08:18:51;9.75;;;8.75;;
59105;SDS011;44891;50.204;8.132;2022-07-25T08:22:55;9.98;;;8.80;;
59105;SDS011;44891;50.204;8.132;2022-07-25T08:26:57;10.68;;;8.65;;
59105;SDS011;44891;50.204;8.132;2022-07-25T08:30:59;10.45;;;9.30;;
59105;SDS011;44891;50.204;8.132;2022-07-25T08:35:01;10.10;;;8.80;;
59105;SDS011;44891;50.204;8.132;2022-07-25T08:39:05;9.75;;;8.75;;
59105;SDS011;44891;50.204;8.132;2022-07-25T08:43:09;9.90;;;8.90;;
59105;SDS011;44891;50.204;8.132;2022-07-25T08:47:13;9.85;;;8.85;;
59105;SDS011;44891;50.204;8.132;2022-07-25T08:51:16;9.63;;;8.63;;
59105;SDS011;44891;50.204;8.132;2022-07-25T08:55:20;10.30;;;9.30;;
59105;SDS011;44891;50.204;8.132;2022-07-25T08:59:24;10.48;;;9.00;;
59105;SDS011;44891;50.204;8.132;2022-07-25T09:03:26;8.98;;;8.07;;
59105;SDS011;44891;50.204;8.132;2022-07-25T09:07:28;10.57;;;8.40;;
59105;SDS011;44891;50.204;8.132;2022-07-25T09:11:34;10.00;;;8.60;;
59105;SDS011;44891;50.204;8.132;2022-07-25T09:15:38;9.18;;;8.20;;
59105;SDS011;44891;50.204;8.132;2022-07-25T09:19:50;9.40;;;8.40;;
59105;SDS011;44891;50.204;8.132;2022-07-25T09:23:52;9.57;;;8.45;;
59105;SDS011;44891;50.204;8.132;2022-07-25T09:28:07;10.50;;;8.40;;
59105;SDS011;44891;50.204;8.132;2022-07-25T09:32:14;10.05;;;8.57;;
59105;SDS011;44891;50.204;8.132;2022-07-25T09:36:18;10.88;;;9.20;;
59105;SDS011;44891;50.204;8.132;2022-07-25T09:40:20;10.68;;;9.35;;
59105;SDS011;44891;50.204;8.132;2022-07-25T09:44:23;10.63;;;9.38;;
59105;SDS011;44891;50.204;8.132;2022-07-25T09:48:29;11.95;;;9.30;;
59105;SDS011;44891;50.204;8.132;2022-07-25T09:52:33;9.88;;;8.82;;
59105;SDS011;44891;50.204;8.132;2022-07-25T09:56:36;9.57;;;8.57;;
59105;SDS011;44891;50.204;8.132;2022-07-25T10:00:40;9.05;;;8.05;;
59105;SDS011;44891;50.204;8.132;2022-07-25T10:04:43;9.77;;;8.80;;
59105;SDS011;44891;50.204;8.132;2022-07-25T10:08:52;9.90;;;8.90;;
59105;SDS011;44891;50.204;8.132;2022-07-25T10:13:02;10.50;;;9.40;;
59105;SDS011;44891;50.204;8.132;2022-07-25T10:17:07;10.48;;;9.23;;
59105;SDS011;44891;50.204;8.132;2022-07-25T10:21:10;11.20;;;8.93;;
59105;SDS011;44891;50.204;8.132;2022-07-25T10:25:14;12.55;;;9.27;;
59105;SDS011;44891;50.204;8.132;2022-07-25T10:29:17;11.63;;;8.80;;
59105;SDS011;44891;50.204;8.132;2022-07-25T10:33:20;10.07;;;8.07;;
59105;SDS011;44891;50.204;8.132;2022-07-25T10:37:25;9.35;;;8.35;;
59105;SDS011;44891;50.204;8.132;2022-07-25T10:41:28;8.80;;;8.00;;
59105;SDS011;44891;50.204;8.132;2022-07-25T10:45:36;9.45;;;8.13;;
59105;SDS011;44891;50.204;8.132;2022-07-25T10:49:44;9.30;;;7.85;;
59105;SDS011;44891;50.204;8.132;2022-07-25T10:53:49;9.10;;;7.97;;
59105;SDS011;44891;50.204;8.132;2022-07-25T10:57:58;8.30;;;7.50;;
59105;SDS011;44891;50.204;8.132;2022-07-25T11:02:01;10.35;;;8.00;;
59105;SDS011;44891;50.204;8.132;2022-07-25T11:06:05;9.25;;;8.02;;
59105;SDS011;44891;50.204;8.132;2022-07-25T11:10:08;8.85;;;7.93;;
59105;SDS011;44891;50.204;8.132;2022-07-25T11:14:14;11.63;;;8.23;;
59105;SDS011;44891;50.204;8.132;2022-07-25T11:18:17;8.75;;;7.85;;
59105;SDS011;44891;50.204;8.132;2022-07-25T11:22:20;9.23;;;7.95;;
59105;SDS011;44891;50.204;8.132;2022-07-25T11:26:23;8.85;;;7.88;;
59105;SDS011;44891;50.204;8.132;2022-07-25T11:30:25;7.28;;;6.57;;
59105;SDS011;44891;50.204;8.132;2022-07-25T11:34:30;7.95;;;6.78;;
59105;SDS011;44891;50.204;8.132;2022-07-25T11:38:34;7.70;;;7.00;;
59105;SDS011;44891;50.204;8.132;2022-07-25T11:42:38;13.68;;;7.22;;
59105;SDS011;44891;50.204;8.132;2022-07-25T11:46:41;7.43;;;6.65;;
59105;SDS011;44891;50.204;8.132;2022-07-25T11:50:44;8.63;;;7.13;;
59105;SDS011;44891;50.204;8.132;2022-07-25T11:54:51;9.68;;;6.80;;
59105;SDS011;44891;50.204;8.132;2022-07-25T11:58:58;7.93;;;6.72;;
59105;SDS011;44891;50.204;8.132;2022-07-25T12:03:05;8.30;;;5.93;;
59105;SDS011;44891;50.204;8.132;2022-07-25T12:07:08;7.65;;;6.32;;
59105;SDS011;44891;50.204;8.132;2022-07-25T12:11:18;7.38;;;6.65;;
59105;SDS011;44891;50.204;8.132;2022-07-25T12:15:22;9.52;;;7.22;;
59105;SDS011;44891;50.204;8.132;2022-07-25T12:19:26;9.15;;;6.70;;
59105;SDS011;44891;50.204;8.132;2022-07-25T12:23:28;8.02;;;7.22;;
59105;SDS011;44891;50.204;8.132;2022-07-25T12:27:32;12.27;;;6.85;;
59105;SDS011;44891;50.204;8.132;2022-07-25T12:31:35;9.02;;;6.95;;
59105;SDS011;44891;50.204;8.132;2022-07-25T12:35:38;8.50;;;7.10;;
59105;SDS011;44891;50.204;8.132;2022-07-25T12:39:41;9.38;;;6.90;;
59105;SDS011;44891;50.204;8.132;2022-07-25T12:43:45;8.82;;;6.80;;
59105;SDS011;44891;50.204;8.132;2022-07-25T12:47:47;7.88;;;6.70;;
59105;SDS011;44891;50.204;8.132;2022-07-25T12:51:49;8.32;;;7.53;;
59105;SDS011;44891;50.204;8.132;2022-07-25T12:55:51;13.65;;;7.97;;
59105;SDS011;44891;50.204;8.132;2022-07-25T12:59:55;8.23;;;7.43;;
59105;SDS011;44891;50.204;8.132;2022-07-25T13:03:57;8.70;;;7.60;;
59105;SDS011;44891;50.204;8.132;2022-07-25T13:07:59;10.65;;;7.43;;
59105;SDS011;44891;50.204;8.132;2022-07-25T13:12:04;10.07;;;7.80;;
59105;SDS011;44891;50.204;8.132;2022-07-25T13:16:08;9.88;;;7.72;;
59105;SDS011;44891;50.204;8.132;2022-07-25T13:20:10;10.45;;;7.65;;
59105;SDS011;44891;50.204;8.132;2022-07-25T13:24:13;9.55;;;7.50;;
59105;SDS011;44891;50.204;8.132;2022-07-25T13:28:15;8.18;;;7.32;;
59105;SDS011;44891;50.204;8.132;2022-07-25T13:32:18;9.10;;;7.55;;
59105;SDS011;44891;50.204;8.132;2022-07-25T13:36:21;9.10;;;7.13;;
59105;SDS011;44891;50.204;8.132;2022-07-25T13:40:23;8.32;;;7.63;;
59105;SDS011;44891;50.204;8.132;2022-07-25T13:44:25;9.95;;;7.35;;
59105;SDS011;44891;50.204;8.132;2022-07-25T13:48:29;8.40;;;7.47;;
59105;SDS011;44891;50.204;8.132;2022-07-25T13:52:31;7.95;;;7.25;;
59105;SDS011;44891;50.204;8.132;2022-07-25T13:56:33;8.45;;;7.65;;
59105;SDS011;44891;50.204;8.132;2022-07-25T14:00:36;7.90;;;7.10;;
59105;SDS011;44891;50.204;8.132;2022-07-25T14:04:39;9.13;;;6.90;;
59105;SDS011;44891;50.204;8.132;2022-07-25T14:08:42;8.30;;;7.30;;
59105;SDS011;44891;50.204;8.132;2022-07-25T14:12:44;8.52;;;7.22;;
59105;SDS011;44891;50.204;8.132;2022-07-25T14:16:46;8.20;;;7.30;;
59105;SDS011;44891;50.204;8.132;2022-07-25T14:20:50;8.55;;;7.00;;
59105;SDS011;44891;50.204;8.132;2022-07-25T14:24:52;7.20;;;6.50;;
59105;SDS011;44891;50.204;8.132;2022-07-25T14:28:54;9.13;;;6.57;;
59105;SDS011;44891;50.204;8.132;2022-07-25T14:32:56;7.63;;;6.90;;
59105;SDS011;44891;50.204;8.132;2022-07-25T14:36:59;6.97;;;6.28;;
59105;SDS011;44891;50.204;8.132;2022-07-25T14:41:02;7.35;;;6.57;;
59105;SDS011;44891;50.204;8.132;2022-07-25T14:45:05;8.18;;;6.63;;
59105;SDS011;44891;50.204;8.132;2022-07-25T14:49:09;8.38;;;6.63;;
59105;SDS011;44891;50.204;8.132;2022-07-25T14:53:14;8.10;;;6.72;;
59105;SDS011;44891;50.204;8.132;2022-07-25T14:57:16;8.82;;;7.00;;
59105;SDS011;44891;50.204;8.132;2022-07-25T15:01:18;8.63;;;7.65;;
59105;SDS011;44891;50.204;8.132;2022-07-25T15:05:23;9.32;;;7.53;;
59105;SDS011;44891;50.204;8.132;2022-07-25T15:09:27;8.13;;;7.32;;
59105;SDS011;44891;50.204;8.132;2022-07-25T15:13:29;9.20;;;7.65;;
59105;SDS011;44891;50.204;8.132;2022-07-25T15:17:31;10.25;;;7.95;;
59105;SDS011;44891;50.204;8.132;2022-07-25T15:21:33;9.52;;;7.70;;
59105;SDS011;44891;50.204;8.132;2022-07-25T15:25:37;11.25;;;8.05;;
59105;SDS011;44891;50.204;8.132;2022-07-25T15:29:39;8.80;;;7.90;;
59105;SDS011;44891;50.204;8.132;2022-07-25T15:33:41;11.02;;;8.07;;
59105;SDS011;44891;50.204;8.132;2022-07-25T15:37:43;8.52;;;7.63;;
59105;SDS011;44891;50.204;8.132;2022-07-25T15:41:46;8.73;;;7.75;;
59105;SDS011;44891;50.204;8.132;2022-07-25T15:45:48;8.82;;;7.65;;
59105;SDS011;44891;50.204;8.132;2022-07-25T15:49:51;9.55;;;7.65;;
59105;SDS011;44891;50.204;8.132;2022-07-25T15:53:53;9.20;;;7.70;;
59105;SDS011;44891;50.204;8.132;2022-07-25T15:57:56;10.38;;;7.85;;
59105;SDS011;44891;50.204;8.132;2022-07-25T16:01:59;10.48;;;7.70;;
59105;SDS011;44891;50.204;8.132;2022-07-25T16:06:02;9.48;;;8.25;;
59105;SDS011;44891;50.204;8.132;2022-07-25T16:10:04;10.85;;;8.15;;
59105;SDS011;44891;50.204;8.132;2022-07-25T16:14:09;10.75;;;8.52;;
59105;SDS011;44891;50.204;8.132;2022-07-25T16:18:11;11.52;;;8.70;;
59105;SDS011;44891;50.204;8.132;2022-07-25T16:22:13;11.05;;;8.73;;
59105;SDS011;44891;50.204;8.132;2022-07-25T16:26:15;10.00;;;8.00;;
59105;SDS011;44891;50.204;8.132;2022-07-25T16:30:18;9.98;;;7.60;;
59105;SDS011;44891;50.204;8.132;2022-07-25T16:34:21;9.23;;;7.38;;
59105;SDS011;44891;50.204;8.132;2022-07-25T16:38:23;9.52;;;7.50;;
59105;SDS011;44891;50.204;8.132;2022-07-25T16:42:25;11.65;;;7.78;;
59105;SDS011;44891;50.204;8.132;2022-07-25T16:46:28;9.05;;;7.10;;
59105;SDS011;44891;50.204;8.132;2022-07-25T16:50:31;10.65;;;6.97;;
59105;SDS011;44891;50.204;8.132;2022-07-25T16:54:33;8.95;;;6.63;;
59105;SDS011;44891;50.204;8.132;2022-07-25T16:58:35;8.55;;;6.18;;
59105;SDS011;44891;50.204;8.132;2022-07-25T17:02:40;6.78;;;5.35;;
59105;SDS011;44891;50.204;8.132;2022-07-25T17:06:43;12.73;;;5.25;;
59105;SDS011;44891;50.204;8.132;2022-07-25T17:10:45;10.77;;;5.32;;
59105;SDS011;44891;50.204;8.132;2022-07-25T17:14:47;8.55;;;5.45;;
59105;SDS011;44891;50.204;8.132;2022-07-25T17:18:51;6.78;;;4.78;;
59105;SDS011;44891;50.204;8.132;2022-07-25T17:22:53;7.65;;;4.93;;
59105;SDS011;44891;50.204;8.132;2022-07-25T17:26:55;9.02;;;4.63;;
59105;SDS011;44891;50.204;8.132;2022-07-25T17:30:57;8.57;;;4.68;;
59105;SDS011;44891;50.204;8.132;2022-07-25T17:35:01;9.00;;;4.80;;
59105;SDS011;44891;50.204;8.132;2022-07-25T17:39:03;14.52;;;4.78;;
59105;SDS011;44891;50.204;8.132;2022-07-25T17:43:05;7.05;;;4.68;;
59105;SDS011;44891;50.204;8.132;2022-07-25T17:47:07;7.25;;;4.60;;
59105;SDS011;44891;50.204;8.132;2022-07-25T17:51:10;6.78;;;4.45;;
59105;SDS011;44891;50.204;8.132;2022-07-25T17:55:12;6.85;;;4.18;;
59105;SDS011;44891;50.204;8.132;2022-07-25T17:59:14;7.13;;;4.53;;
59105;SDS011;44891;50.204;8.132;2022-07-25T18:03:17;8.48;;;3.90;;
59105;SDS011;44891;50.204;8.132;2022-07-25T18:07:20;13.00;;;5.13;;
59105;SDS011;44891;50.204;8.132;2022-07-25T18:11:22;6.32;;;3.88;;
59105;SDS011;44891;50.204;8.132;2022-07-25T18:15:25;6.18;;;3.90;;
59105;SDS011;44891;50.204;8.132;2022-07-25T18:19:27;6.75;;;3.78;;
59105;SDS011;44891;50.204;8.132;2022-07-25T18:23:30;7.15;;;3.63;;
59105;SDS011;44891;50.204;8.132;2022-07-25T18:27:32;9.27;;;4.05;;
59105;SDS011;44891;50.204;8.132;2022-07-25T18:31:35;7.22;;;3.70;;
59105;SDS011;44891;50.204;8.132;2022-07-25T18:35:37;7.85;;;3.92;;
59105;SDS011;44891;50.204;8.132;2022-07-25T18:39:40;9.95;;;3.80;;
59105;SDS011;44891;50.204;8.132;2022-07-25T18:43:43;5.90;;;3.70;;
59105;SDS011;44891;50.204;8.132;2022-07-25T18:47:45;10.18;;;3.90;;
59105;SDS011;44891;50.204;8.132;2022-07-25T18:51:47;6.15;;;3.53;;
59105;SDS011;44891;50.204;8.132;2022-07-25T18:55:51;7.25;;;3.50;;
59105;SDS011;44891;50.204;8.132;2022-07-25T18:59:53;9.25;;;3.67;;
59105;SDS011;44891;50.204;8.132;2022-07-25T19:03:55;5.88;;;3.70;;
59105;SDS011;44891;50.204;8.132;2022-07-25T19:07:58;5.82;;;3.67;;
59105;SDS011;44891;50.204;8.132;2022-07-25T19:12:01;4.72;;;3.58;;
59105;SDS011;44891;50.204;8.132;2022-07-25T19:16:04;10.27;;;3.85;;
59105;SDS011;44891;50.204;8.132;2022-07-25T19:20:07;7.05;;;3.80;;
59105;SDS011;44891;50.204;8.132;2022-07-25T19:24:10;6.28;;;3.40;;
59105;SDS011;44891;50.204;8.132;2022-07-25T19:28:14;7.28;;;3.83;;
59105;SDS011;44891;50.204;8.132;2022-07-25T19:32:16;7.05;;;3.60;;
59105;SDS011;44891;50.204;8.132;2022-07-25T19:36:18;9.30;;;4.18;;
59105;SDS011;44891;50.204;8.132;2022-07-25T19:40:22;6.90;;;3.58;;
59105;SDS011;44891;50.204;8.132;2022-07-25T19:44:25;6.90;;;3.50;;
59105;SDS011;44891;50.204;8.132;2022-07-25T19:48:28;10.38;;;4.03;;
59105;SDS011;44891;50.204;8.132;2022-07-25T19:52:30;7.07;;;3.83;;
59105;SDS011;44891;50.204;8.132;2022-07-25T19:56:32;6.20;;;3.50;;
59105;SDS011;44891;50.204;8.132;2022-07-25T20:00:37;11.00;;;4.00;;
59105;SDS011;44891;50.204;8.132;2022-07-25T20:04:39;9.98;;;4.00;;
59105;SDS011;44891;50.204;8.132;2022-07-25T20:08:41;7.53;;;4.07;;
59105;SDS011;44891;50.204;8.132;2022-07-25T20:12:43;7.55;;;4.18;;
59105;SDS011;44891;50.204;8.132;2022-07-25T20:16:47;9.68;;;3.85;;
59105;SDS011;44891;50.204;8.132;2022-07-25T20:20:49;5.95;;;3.70;;
59105;SDS011;44891;50.204;8.132;2022-07-25T20:24:52;5.43;;;3.70;;
59105;SDS011;44891;50.204;8.132;2022-07-25T20:28:54;5.40;;;3.80;;
59105;SDS011;44891;50.204;8.132;2022-07-25T20:32:57;9.85;;;3.95;;
59105;SDS011;44891;50.204;8.132;2022-07-25T20:36:59;8.65;;;4.30;;
59105;SDS011;44891;50.204;8.132;2022-07-25T20:41:01;5.80;;;3.90;;
59105;SDS011;44891;50.204;8.132;2022-07-25T20:45:04;7.05;;;3.80;;
59105;SDS011;44891;50.204;8.132;2022-07-25T20:49:08;7.50;;;4.25;;
59105;SDS011;44891;50.204;8.132;2022-07-25T20:53:11;7.07;;;3.90;;
59105;SDS011;44891;50.204;8.132;2022-07-25T20:57:13;5.93;;;3.78;;
59105;SDS011;44891;50.204;8.132;2022-07-25T21:01:15;6.93;;;4.13;;
59105;SDS011;44891;50.204;8.132;2022-07-25T21:05:19;6.50;;;4.10;;
59105;SDS011;44891;50.204;8.132;2022-07-25T21:09:21;9.70;;;4.30;;
59105;SDS011;44891;50.204;8.132;2022-07-25T21:13:23;7.85;;;3.92;;
59105;SDS011;44891;50.204;8.132;2022-07-25T21:17:25;5.72;;;3.72;;
59105;SDS011;44891;50.204;8.132;2022-07-25T21:21:29;6.28;;;4.05;;
59105;SDS011;44891;50.204;8.132;2022-07-25T21:25:31;6.97;;;4.18;;
59105;SDS011;44891;50.204;8.132;2022-07-25T21:29:33;6.50;;;4.30;;
59105;SDS011;44891;50.204;8.132;2022-07-25T21:33:35;6.57;;;3.95;;
59105;SDS011;44891;50.204;8.132;2022-07-25T21:37:39;9.00;;;4.13;;
59105;SDS011;44891;50.204;8.132;2022-07-25T21:41:41;7.55;;;4.25;;
59105;SDS011;44891;50.204;8.132;2022-07-25T21:45:43;4.93;;;3.90;;
59105;SDS011;44891;50.204;8.132;2022-07-25T21:49:46;7.03;;;4.10;;
59105;SDS011;44891;50.204;8.132;2022-07-25T21:54:07;6.43;;;4.35;;
59105;SDS011;44891;50.204;8.132;2022-07-25T21:58:09;6.03;;;4.10;;
59105;SDS011;44891;50.204;8.132;2022-07-25T22:02:11;8.23;;;4.05;;
59105;SDS011;44891;50.204;8.132;2022-07-25T22:06:14;6.80;;;4.20;;
59105;SDS011;44891;50.204;8.132;2022-07-25T22:10:18;5.88;;;3.97;;
59105;SDS011;44891;50.204;8.132;2022-07-25T22:14:21;7.07;;;4.18;;
59105;SDS011;44891;50.204;8.132;2022-07-25T22:18:23;5.78;;;3.65;;
59105;SDS011;44891;50.204;8.132;2022-07-25T22:22:25;5.18;;;3.40;;
59105;SDS011;44891;50.204;8.132;2022-07-25T22:26:28;4.25;;;3.40;;
59105;SDS011;44891;50.204;8.132;2022-07-25T22:30:30;6.78;;;3.20;;
59105;SDS011;44891;50.204;8.132;2022-07-25T22:34:34;7.25;;;3.30;;
59105;SDS011;44891;50.204;8.132;2022-07-25T22:38:36;10.90;;;3.40;;
59105;SDS011;44891;50.204;8.132;2022-07-25T22:42:40;5.95;;;3.55;;
59105;SDS011;44891;50.204;8.132;2022-07-25T22:46:42;5.28;;;3.50;;
59105;SDS011;44891;50.204;8.132;2022-07-25T22:50:44;7.22;;;3.70;;
59105;SDS011;44891;50.204;8.132;2022-07-25T22:54:46;7.60;;;3.55;;
59105;SDS011;44891;50.204;8.132;2022-07-25T22:58:50;6.25;;;3.50;;
59105;SDS011;44891;50.204;8.132;2022-07-25T23:02:52;6.57;;;4.00;;
59105;SDS011;44891;50.204;8.132;2022-07-25T23:06:54;5.25;;;3.70;;
59105;SDS011;44891;50.204;8.132;2022-07-25T23:10:56;5.57;;;3.50;;
59105;SDS011;44891;50.204;8.132;2022-07-25T23:14:59;6.82;;;3.85;;
59105;SDS011;44891;50.204;8.132;2022-07-25T23:19:02;8.43;;;3.88;;
59105;SDS011;44891;50.204;8.132;2022-07-25T23:23:04;6.05;;;3.80;;
59105;SDS011;44891;50.204;8.132;2022-07-25T23:27:06;8.30;;;3.63;;
59105;SDS011;44891;50.204;8.132;2022-07-25T23:31:10;5.35;;;3.83;;
59105;SDS011;44891;50.204;8.132;2022-07-25T23:35:12;5.78;;;3.75;;
59105;SDS011;44891;50.204;8.132;2022-07-25T23:39:14;6.88;;;4.18;;
59105;SDS011;44891;50.204;8.132;2022-07-25T23:43:16;12.93;;;3.97;;
59105;SDS011;44891;50.204;8.132;2022-07-25T23:47:20;6.22;;;3.85;;
59105;SDS011;44891;50.204;8.132;2022-07-25T23:51:22;6.40;;;3.70;;
59105;SDS011;44891;50.204;8.132;2022-07-25T23:55:24;5.80;;;3.67;;
59105;SDS011;44891;50.204;8.132;2022-07-25T23:59:26;6.78;;;3.83;;
